createdAt,value
2022-10-04T00:02:20.771Z,6.60
2022-10-04T00:04:52.656Z,6.60
2022-10-04T00:07:24.599Z,6.50
2022-10-04T00:09:57.447Z,6.50
2022-10-04T00:12:27.758Z,6.50
2022-10-04T00:14:59.638Z,6.60
2022-10-04T00:17:31.442Z,6.70
2022-10-04T00:19:59.906Z,6.70
2022-10-04T00:22:28.993Z,6.70
2022-10-04T00:25:21.278Z,6.70
2022-10-04T00:28:27.800Z,6.70
2022-10-04T00:31:24.615Z,6.70
2022-10-04T00:33:55.803Z,6.80
2022-10-04T00:36:46.147Z,6.80
2022-10-04T00:39:24.212Z,6.80
2022-10-04T00:42:24.797Z,6.80
2022-10-04T00:44:57.326Z,6.90
2022-10-04T00:47:31.460Z,6.80
2022-10-04T00:50:11.710Z,6.80
2022-10-04T00:52:45.193Z,6.80
2022-10-04T00:55:24.963Z,6.70
2022-10-04T00:57:59.377Z,6.70
2022-10-04T01:00:28.033Z,6.80
2022-10-04T01:03:01.818Z,6.70
2022-10-04T01:05:35.241Z,6.70
2022-10-04T01:08:08.863Z,6.70
2022-10-04T01:10:41.756Z,6.70
2022-10-04T01:13:13.970Z,6.70
2022-10-04T01:15:45.899Z,6.60
2022-10-04T01:18:17.291Z,6.50
2022-10-04T01:20:54.876Z,6.50
2022-10-04T01:23:43.429Z,6.50
2022-10-04T01:26:40.256Z,6.50
2022-10-04T01:29:11.701Z,6.40
2022-10-04T01:31:43.289Z,6.30
2022-10-04T01:34:15.199Z,6.30
2022-10-04T01:36:45.997Z,6.40
2022-10-04T01:39:17.179Z,6.40
2022-10-04T01:41:50.999Z,6.40
2022-10-04T01:44:26.506Z,6.40
2022-10-04T01:46:57.380Z,6.40
2022-10-04T01:49:30.145Z,6.30
2022-10-04T01:52:04.277Z,6.40
2022-10-04T01:54:37.397Z,6.30
2022-10-04T01:57:13.518Z,6.20
2022-10-04T01:59:45.315Z,6.20
2022-10-04T02:02:22.603Z,6.10
2022-10-04T02:04:54.832Z,6.10
2022-10-04T02:07:23.947Z,6.10
2022-10-04T02:09:59.596Z,6.10
2022-10-04T02:12:31.265Z,6.10
2022-10-04T02:15:02.265Z,6.00
2022-10-04T02:17:32.737Z,6.10
2022-10-04T02:20:02.852Z,6.10
2022-10-04T02:22:31.839Z,6.10
2022-10-04T02:25:01.695Z,6.10
2022-10-04T02:27:31.205Z,5.90
2022-10-04T02:30:03.970Z,5.90
2022-10-04T02:32:51.037Z,5.90
2022-10-04T02:35:20.518Z,5.90
2022-10-04T02:37:52.870Z,5.90
2022-10-04T02:40:27.503Z,5.90
2022-10-04T02:43:01.071Z,5.90
2022-10-04T02:45:38.882Z,5.80
2022-10-04T02:48:22.691Z,5.80
2022-10-04T02:50:53.879Z,5.80
2022-10-04T02:53:30.758Z,5.80
2022-10-04T02:56:00.302Z,5.80
2022-10-04T02:58:28.720Z,5.80
2022-10-04T03:00:59.844Z,5.80
2022-10-04T03:03:29.738Z,5.80
2022-10-04T03:06:05.679Z,5.80
2022-10-04T03:08:37.622Z,5.80
2022-10-04T03:11:07.085Z,5.80
2022-10-04T03:13:37.097Z,5.70
2022-10-04T03:16:05.666Z,5.70
2022-10-04T03:18:36.565Z,5.60
2022-10-04T03:21:08.778Z,5.50
2022-10-04T03:23:36.921Z,5.60
2022-10-04T03:26:20.673Z,5.60
2022-10-04T03:28:49.187Z,5.60
2022-10-04T03:31:19.830Z,5.50
2022-10-04T03:33:48.320Z,5.60
2022-10-04T03:36:19.382Z,5.60
2022-10-04T03:38:49.135Z,5.60
2022-10-04T03:41:18.381Z,5.60
2022-10-04T03:43:50.482Z,5.60
2022-10-04T03:46:19.943Z,5.60
2022-10-04T03:48:51.395Z,5.60
2022-10-04T03:51:22.547Z,5.60
2022-10-04T03:53:53.451Z,5.60
2022-10-04T03:56:28.182Z,5.60
2022-10-04T03:58:57.032Z,5.60
2022-10-04T04:01:41.628Z,5.60
2022-10-04T04:04:19.935Z,5.60
2022-10-04T04:06:55.952Z,5.60
2022-10-04T04:09:27.477Z,5.60
2022-10-04T04:11:58.756Z,5.60
2022-10-04T04:14:29.023Z,5.50
2022-10-04T04:17:30.429Z,5.50
2022-10-04T04:20:06.123Z,5.40
2022-10-04T04:22:36.209Z,5.40
2022-10-04T04:25:09.066Z,5.40
2022-10-04T04:27:40.474Z,5.40
2022-10-04T04:30:09.551Z,5.40
2022-10-04T04:32:41.282Z,5.40
2022-10-04T04:35:23.115Z,5.40
2022-10-04T04:38:05.254Z,5.30
2022-10-04T04:40:34.010Z,5.30
2022-10-04T04:43:04.432Z,5.30
2022-10-04T04:45:34.355Z,5.30
2022-10-04T05:11:25.963Z,5.20
2022-10-04T05:13:58.418Z,5.10
2022-10-04T05:16:33.103Z,5.20
2022-10-04T05:19:03.936Z,5.20
2022-10-04T05:21:34.691Z,5.20
2022-10-04T05:24:11.158Z,5.20
2022-10-04T05:26:42.335Z,5.10
2022-10-04T05:29:17.129Z,5.10
2022-10-04T05:31:49.115Z,5.20
2022-10-04T05:34:22.745Z,5.20
2022-10-04T05:37:10.502Z,5.20
2022-10-04T05:39:44.410Z,5.20
2022-10-04T05:42:23.110Z,5.20
2022-10-04T05:44:53.557Z,5.30
2022-10-04T05:47:24.361Z,5.40
2022-10-04T05:49:55.378Z,5.50
2022-10-04T05:52:30.388Z,5.70
2022-10-04T05:55:29.826Z,5.70
2022-10-04T05:58:18.361Z,5.80
2022-10-04T06:01:01.224Z,5.90
2022-10-04T06:03:49.099Z,6.10
2022-10-04T06:06:22.496Z,6.20
2022-10-04T06:09:01.628Z,6.30
2022-10-04T06:11:40.522Z,6.40
2022-10-04T06:14:32.638Z,6.60
2022-10-04T06:17:19.188Z,6.70
2022-10-04T06:20:01.225Z,6.90
2022-10-04T06:22:29.206Z,7.00
2022-10-04T06:25:01.742Z,7.10
2022-10-04T06:27:36.761Z,7.00
2022-10-04T06:30:07.989Z,7.10
2022-10-04T06:33:03.977Z,7.20
2022-10-04T06:36:11.528Z,7.20
2022-10-04T06:39:14.740Z,7.20
2022-10-04T06:42:12.001Z,7.30
2022-10-04T06:44:51.627Z,7.30
2022-10-04T06:47:35.107Z,7.40
2022-10-04T06:50:19.341Z,7.60
2022-10-04T06:53:03.139Z,7.60
2022-10-04T06:56:04.577Z,7.70
2022-10-04T06:58:44.323Z,7.90
2022-10-04T07:01:23.192Z,8.00
2022-10-04T07:03:56.024Z,8.10
2022-10-04T07:06:28.636Z,8.20
2022-10-04T07:08:59.673Z,8.30
2022-10-04T07:11:32.453Z,8.50
2022-10-04T07:14:14.214Z,8.60
2022-10-04T07:16:47.407Z,8.70
2022-10-04T07:19:32.365Z,8.80
2022-10-04T07:22:12.163Z,8.90
2022-10-04T07:24:52.464Z,9.00
2022-10-04T07:27:25.175Z,9.20
2022-10-04T07:29:55.978Z,9.40
2022-10-04T07:32:28.355Z,9.50
2022-10-04T07:35:03.642Z,9.50
2022-10-04T07:37:37.770Z,9.70
2022-10-04T07:40:10.572Z,9.70
2022-10-04T07:42:46.571Z,9.90
2022-10-04T07:45:20.786Z,10.00
2022-10-04T07:47:48.754Z,10.10
2022-10-04T07:50:27.213Z,10.20
2022-10-04T07:53:07.132Z,10.30
2022-10-04T07:55:50.902Z,10.30
2022-10-04T07:58:45.544Z,10.50
2022-10-04T08:01:24.816Z,10.60
2022-10-04T08:04:06.793Z,10.70
2022-10-04T08:06:39.800Z,10.80
2022-10-04T08:09:38.838Z,10.80
2022-10-04T08:12:17.768Z,10.90
2022-10-04T08:15:11.102Z,11.00
2022-10-04T08:17:51.689Z,11.10
2022-10-04T08:20:36.310Z,11.10
2022-10-04T08:23:44.808Z,11.30
2022-10-04T08:26:27.444Z,11.50
2022-10-04T08:29:27.625Z,11.60
2022-10-04T08:32:06.109Z,11.80
2022-10-04T08:34:58.738Z,11.80
2022-10-04T08:37:42.404Z,11.90
2022-10-04T08:40:45.535Z,11.80
2022-10-04T08:43:49.255Z,11.80
2022-10-04T08:46:41.449Z,11.90
2022-10-04T08:49:44.767Z,12.10
2022-10-04T08:52:52.114Z,12.20
2022-10-04T08:55:50.971Z,12.40
2022-10-04T08:58:45.320Z,12.50
2022-10-04T09:01:39.637Z,12.70
2022-10-04T09:04:53.498Z,12.70
2022-10-04T09:08:12.125Z,12.80
2022-10-04T09:10:57.342Z,12.80
2022-10-04T09:13:37.410Z,13.00
2022-10-04T09:16:16.505Z,13.10
2022-10-04T09:18:52.526Z,13.10
2022-10-04T09:21:28.746Z,13.10
2022-10-04T09:24:21.946Z,13.10
2022-10-04T09:26:57.140Z,13.10
2022-10-04T09:29:53.586Z,13.10
2022-10-04T09:32:41.855Z,13.10
2022-10-04T09:35:38.618Z,13.20
2022-10-04T09:38:25.173Z,13.30
2022-10-04T09:41:32.381Z,13.30
2022-10-04T09:44:35.158Z,13.30
2022-10-04T09:47:24.201Z,13.50
2022-10-04T09:50:30.155Z,13.60
2022-10-04T09:53:08.295Z,13.70
2022-10-04T09:55:58.570Z,13.70
2022-10-04T09:59:03.814Z,13.80
2022-10-04T10:01:40.547Z,13.90
2022-10-04T10:04:26.963Z,13.90
2022-10-04T10:07:23.471Z,14.00
2022-10-04T10:10:15.794Z,14.00
2022-10-04T10:13:32.638Z,13.90
2022-10-04T10:16:07.377Z,14.00
2022-10-04T10:18:50.270Z,14.10
2022-10-04T10:21:35.863Z,14.00
2022-10-04T10:24:33.134Z,13.90
2022-10-04T10:27:26.462Z,14.00
2022-10-04T10:30:24.757Z,13.90
2022-10-04T10:33:29.856Z,14.00
2022-10-04T10:36:17.144Z,13.90
2022-10-04T10:38:58.071Z,13.90
2022-10-04T10:41:43.067Z,13.90
2022-10-04T10:44:26.637Z,14.00
2022-10-04T10:47:06.722Z,13.90
2022-10-04T10:49:56.893Z,13.90
2022-10-04T10:53:01.097Z,13.90
2022-10-04T10:56:01.799Z,13.90
2022-10-04T10:59:02.342Z,13.90
2022-10-04T11:01:54.347Z,14.10
2022-10-04T11:04:45.355Z,14.10
2022-10-04T11:07:43.227Z,14.10
2022-10-04T11:10:31.118Z,14.10
2022-10-04T11:13:21.286Z,14.10
2022-10-04T11:16:21.373Z,14.10
2022-10-04T11:19:23.405Z,14.30
2022-10-04T11:22:45.285Z,14.30
2022-10-04T11:25:41.525Z,14.30
2022-10-04T11:28:16.925Z,14.30
2022-10-04T11:31:18.859Z,14.20
2022-10-04T11:34:16.540Z,14.20
2022-10-04T11:37:01.709Z,14.30
2022-10-04T11:39:49.858Z,14.30
2022-10-04T11:42:31.416Z,14.40
2022-10-04T11:45:20.277Z,14.60
2022-10-04T11:48:02.336Z,14.60
2022-10-04T11:50:39.851Z,14.70
2022-10-04T11:53:52.834Z,14.50
2022-10-04T11:56:44.097Z,14.60
2022-10-04T11:59:25.028Z,14.60
2022-10-04T12:02:32.615Z,14.50
2022-10-04T12:05:20.737Z,14.60
2022-10-04T12:08:01.306Z,14.70
2022-10-04T12:10:30.907Z,14.80
2022-10-04T12:13:34.578Z,14.90
2022-10-04T12:16:24.062Z,14.90
2022-10-04T12:19:40.454Z,14.90
2022-10-04T12:22:32.626Z,14.90
2022-10-04T12:25:33.208Z,14.90
2022-10-04T12:28:34.660Z,15.00
2022-10-04T12:31:23.754Z,15.10
2022-10-04T12:34:00.834Z,15.30
2022-10-04T12:36:51.442Z,15.50
2022-10-04T12:39:34.877Z,15.50
2022-10-04T12:42:24.227Z,15.50
2022-10-04T12:45:06.191Z,15.60
2022-10-04T12:48:03.309Z,15.40
2022-10-04T12:50:44.650Z,15.50
2022-10-04T12:53:21.599Z,15.60
2022-10-04T12:56:02.310Z,15.50
2022-10-04T12:58:44.189Z,15.50
2022-10-04T13:01:22.821Z,15.40
2022-10-04T13:04:12.587Z,15.40
2022-10-04T13:06:52.374Z,15.30
2022-10-04T13:09:31.214Z,15.40
2022-10-04T13:12:12.558Z,15.30
2022-10-04T13:15:07.142Z,15.30
2022-10-04T13:17:44.995Z,15.20
2022-10-04T13:20:41.678Z,15.30
2022-10-04T13:23:17.979Z,15.30
2022-10-04T13:26:04.495Z,15.30
2022-10-04T13:28:41.105Z,15.30
2022-10-04T13:31:15.596Z,15.30
2022-10-04T13:33:50.194Z,15.30
2022-10-04T13:36:26.328Z,15.30
2022-10-04T13:39:14.711Z,15.30
2022-10-04T13:42:03.232Z,15.20
2022-10-04T13:44:43.925Z,15.20
2022-10-04T13:47:40.157Z,15.30
2022-10-04T13:50:37.770Z,15.20
2022-10-04T13:53:35.979Z,15.30
2022-10-04T13:56:29.624Z,15.30
2022-10-04T13:59:04.675Z,15.20
2022-10-04T14:02:01.279Z,15.20
2022-10-04T14:04:54.478Z,15.10
2022-10-04T14:07:53.769Z,15.20
2022-10-04T14:10:42.781Z,15.20
2022-10-04T14:13:45.349Z,15.30
2022-10-04T14:16:33.995Z,15.30
2022-10-04T14:19:33.577Z,15.30
2022-10-04T14:22:36.213Z,15.30
2022-10-04T14:25:45.923Z,15.30
2022-10-04T14:28:53.042Z,15.40
2022-10-04T14:31:37.375Z,15.40
2022-10-04T14:34:35.063Z,15.40
2022-10-04T14:37:37.306Z,15.30
2022-10-04T14:40:29.249Z,15.30
2022-10-04T14:43:43.804Z,15.30
2022-10-04T14:46:22.528Z,15.40
2022-10-04T14:49:11.072Z,15.40
2022-10-04T14:52:14.352Z,15.40
2022-10-04T14:54:52.333Z,15.50
2022-10-04T14:57:27.188Z,15.50
2022-10-04T15:00:10.175Z,15.50
2022-10-04T15:03:14.395Z,15.40
2022-10-04T15:05:59.539Z,15.50
2022-10-04T15:08:59.910Z,15.50
2022-10-04T15:11:41.415Z,15.50
2022-10-04T15:14:28.182Z,15.70
2022-10-04T15:17:00.219Z,16.20
2022-10-04T15:19:31.460Z,16.20
2022-10-04T15:22:08.095Z,18.10
2022-10-04T15:24:48.843Z,19.50
2022-10-04T15:27:50.239Z,20.70
2022-10-04T15:30:35.547Z,20.30
2022-10-04T15:33:26.821Z,19.20
2022-10-04T15:36:18.051Z,18.10
2022-10-04T15:38:50.630Z,17.30
2022-10-04T15:41:27.292Z,16.80
2022-10-04T15:44:28.920Z,16.60
2022-10-04T15:47:09.299Z,16.20
2022-10-04T15:49:55.389Z,15.90
2022-10-04T15:53:13.907Z,15.60
2022-10-04T15:56:12.738Z,15.30
2022-10-04T15:58:54.321Z,15.20
2022-10-04T16:01:38.968Z,15.00
2022-10-04T16:04:20.675Z,14.80
2022-10-04T16:06:56.486Z,14.70
2022-10-04T16:09:34.747Z,14.60
2022-10-04T16:12:22.800Z,14.50
2022-10-04T16:15:14.321Z,14.40
2022-10-04T16:18:05.187Z,14.40
2022-10-04T16:20:53.473Z,14.30
2022-10-04T16:23:34.734Z,14.10
2022-10-04T16:26:05.293Z,14.00
2022-10-04T16:28:46.946Z,13.90
2022-10-04T16:31:38.263Z,13.80
2022-10-04T16:34:34.228Z,13.70
2022-10-04T16:37:14.001Z,13.60
2022-10-04T16:40:06.688Z,13.50
2022-10-04T16:42:46.872Z,13.40
2022-10-04T16:45:35.872Z,13.20
2022-10-04T16:48:13.023Z,13.10
2022-10-04T16:51:13.543Z,12.90
2022-10-04T16:53:49.038Z,12.90
2022-10-04T16:56:20.738Z,12.70
2022-10-04T16:58:58.740Z,12.60
2022-10-04T17:01:55.862Z,12.50
2022-10-04T17:04:55.488Z,12.40
2022-10-04T17:07:33.697Z,12.30
2022-10-04T17:10:20.000Z,12.30
2022-10-04T17:12:56.338Z,12.20
2022-10-04T17:15:45.513Z,12.00
2022-10-04T17:18:19.675Z,12.00
2022-10-04T17:20:56.684Z,11.80
2022-10-04T17:23:43.815Z,11.80
2022-10-04T17:26:25.475Z,11.70
2022-10-04T17:28:59.382Z,11.60
2022-10-04T17:31:33.952Z,11.50
2022-10-04T17:34:13.807Z,11.40
2022-10-04T17:36:44.355Z,11.40
2022-10-04T17:39:38.967Z,11.40
2022-10-04T17:42:21.336Z,11.30
2022-10-04T17:45:07.712Z,11.20
2022-10-04T17:47:52.765Z,11.20
2022-10-04T17:50:44.386Z,11.20
2022-10-04T17:53:37.730Z,11.10
2022-10-04T17:56:07.994Z,11.10
2022-10-04T17:58:45.140Z,11.10
2022-10-04T18:01:19.460Z,11.10
2022-10-04T18:03:53.527Z,11.00
2022-10-04T18:06:33.265Z,11.00
2022-10-04T18:09:05.708Z,11.00
2022-10-04T18:11:43.609Z,10.90
2022-10-04T18:14:21.594Z,10.90
2022-10-04T18:16:55.009Z,10.80
2022-10-04T18:19:38.513Z,10.80
2022-10-04T18:22:14.818Z,10.70
2022-10-04T18:24:44.215Z,10.70
2022-10-04T18:27:21.472Z,10.60
2022-10-04T18:30:03.121Z,10.50
2022-10-04T18:32:37.884Z,10.50
2022-10-04T18:35:22.650Z,10.50
2022-10-04T18:37:51.078Z,10.40
2022-10-04T18:40:20.655Z,10.40
2022-10-04T18:42:53.928Z,10.40
2022-10-04T18:45:28.147Z,10.30
2022-10-04T18:47:59.776Z,10.30
2022-10-04T18:50:36.222Z,10.30
2022-10-04T18:53:40.893Z,10.30
2022-10-04T18:56:10.150Z,10.30
2022-10-04T18:59:22.617Z,10.30
2022-10-04T19:02:02.745Z,10.20
2022-10-04T19:04:54.782Z,10.20
2022-10-04T19:07:30.804Z,10.10
2022-10-04T19:10:18.343Z,10.10
2022-10-04T19:12:57.050Z,10.10
2022-10-04T19:15:42.502Z,10.10
2022-10-04T19:18:26.574Z,10.00
2022-10-04T19:21:01.736Z,10.00
2022-10-04T19:23:36.315Z,10.00
2022-10-04T19:29:11.297Z,10.00
2022-10-04T19:31:47.410Z,10.00
2022-10-04T19:34:20.856Z,10.00
2022-10-04T19:36:57.738Z,10.00
2022-10-04T19:39:36.173Z,10.00
2022-10-04T19:42:06.715Z,9.90
2022-10-04T19:44:53.827Z,9.90
2022-10-04T19:47:39.788Z,9.90
2022-10-04T19:50:18.491Z,9.90
2022-10-04T19:52:54.190Z,9.90
2022-10-04T19:55:27.503Z,9.80
2022-10-04T19:58:02.631Z,9.80
2022-10-04T20:00:30.383Z,9.80
2022-10-04T20:02:58.194Z,9.70
2022-10-04T20:05:26.494Z,9.80
2022-10-04T20:08:01.439Z,9.80
2022-10-04T20:10:35.593Z,9.80
2022-10-04T20:13:23.260Z,9.70
2022-10-04T20:15:56.145Z,9.80
2022-10-04T20:19:05.606Z,9.70
2022-10-04T20:21:33.938Z,9.70
2022-10-04T20:24:03.135Z,9.60
2022-10-04T20:27:04.426Z,9.60
2022-10-04T20:30:01.660Z,9.60
2022-10-04T20:32:55.151Z,9.60
2022-10-04T20:36:14.002Z,9.60
2022-10-04T20:39:02.715Z,9.60
2022-10-04T20:42:22.397Z,9.60
2022-10-04T20:44:57.157Z,9.50
2022-10-04T20:47:37.903Z,9.50
2022-10-04T20:50:14.462Z,9.40
2022-10-04T20:52:46.184Z,9.40
2022-10-04T20:55:20.967Z,9.50
2022-10-04T20:57:49.066Z,9.50
2022-10-04T21:00:25.556Z,9.50
2022-10-04T21:03:15.079Z,9.40
2022-10-04T21:05:42.857Z,9.30
2022-10-04T21:08:23.410Z,9.40
2022-10-04T21:11:09.719Z,9.40
2022-10-04T21:13:54.702Z,9.30
2022-10-04T21:16:46.154Z,9.20
2022-10-04T21:19:47.761Z,9.20
2022-10-04T21:22:36.029Z,9.20
2022-10-04T21:25:06.837Z,9.20
2022-10-04T21:27:36.471Z,9.10
2022-10-04T21:30:07.089Z,9.10
2022-10-04T21:32:37.549Z,9.10
2022-10-04T21:35:07.119Z,9.10
2022-10-04T21:37:35.690Z,9.00
2022-10-04T21:40:03.812Z,9.00
2022-10-04T21:42:31.548Z,9.00
2022-10-04T21:44:59.304Z,9.00
2022-10-04T21:47:27.059Z,8.90
2022-10-04T21:49:56.179Z,8.90
2022-10-04T21:52:23.970Z,8.90
2022-10-04T21:54:51.955Z,8.90
2022-10-04T21:57:19.690Z,8.80
2022-10-04T21:59:47.863Z,8.80
2022-10-04T22:02:15.656Z,8.70
2022-10-04T22:04:43.453Z,8.70
2022-10-04T22:07:12.523Z,8.60
2022-10-04T22:09:40.935Z,8.60
2022-10-04T22:12:08.649Z,8.50
2022-10-04T22:14:36.374Z,8.50
2022-10-04T22:17:04.200Z,8.50
2022-10-04T22:19:32.047Z,8.50
2022-10-04T22:21:59.788Z,8.50
2022-10-04T22:24:28.969Z,8.50
2022-10-04T22:26:58.179Z,8.60
2022-10-04T22:29:27.747Z,8.50
2022-10-04T22:31:56.162Z,8.50
2022-10-04T22:34:23.980Z,8.40
2022-10-04T22:36:52.936Z,8.40
2022-10-04T22:39:21.926Z,8.40
2022-10-04T22:41:57.007Z,8.40
2022-10-04T22:44:28.752Z,8.30
2022-10-04T22:46:58.702Z,8.30
2022-10-04T22:49:28.380Z,8.30
2022-10-04T22:51:58.588Z,8.20
2022-10-04T22:54:29.155Z,8.30
2022-10-04T22:56:59.383Z,8.30
2022-10-04T22:59:34.250Z,8.30
2022-10-04T23:02:08.483Z,8.30
2022-10-04T23:04:36.388Z,8.30
2022-10-04T23:07:04.195Z,8.30
2022-10-04T23:09:31.922Z,8.20
2022-10-04T23:12:01.049Z,8.20
2022-10-04T23:14:28.802Z,8.20
2022-10-04T23:16:56.553Z,8.20
2022-10-04T23:19:24.588Z,8.10
2022-10-04T23:21:52.363Z,8.20
2022-10-04T23:24:22.438Z,8.10
2022-10-04T23:26:54.916Z,8.10
2022-10-04T23:29:25.706Z,8.10
2022-10-04T23:31:53.753Z,8.10
2022-10-04T23:34:28.607Z,8.10
2022-10-04T23:36:57.465Z,8.00
2022-10-04T23:39:27.459Z,8.00
2022-10-04T23:41:56.746Z,7.90
2022-10-04T23:44:30.787Z,8.00
2022-10-04T23:46:58.630Z,8.00
2022-10-04T23:49:26.557Z,7.90
2022-10-04T23:52:00.371Z,7.80
2022-10-04T23:54:28.199Z,7.80
2022-10-04T23:56:55.957Z,7.80
2022-10-04T23:59:27.163Z,7.80
